sensor_id;sensor_type;location;lat;lon;timestamp;P1;durP1;ratioP1;P2;durP2;ratioP2
74457;SDS011;62896;51.032;3.712;2022-09-03T14:19:10;4.9;;;3;;
74457;SDS011;62896;51.032;3.712;2022-09-03T14:22:29;4.9;;;3;;
74457;SDS011;62896;51.032;3.712;2022-09-03T14:25:51;4.9;;;3;;
74457;SDS011;62896;51.032;3.712;2022-09-03T14:29:13;4.9;;;3;;
74457;SDS011;62896;51.032;3.712;2022-09-03T14:32:29;4.9;;;3;;
74457;SDS011;62896;51.032;3.712;2022-09-03T14:35:51;4.9;;;3;;
74457;SDS011;62896;51.032;3.712;2022-09-03T14:39:11;4.9;;;3;;
74457;SDS011;62896;51.032;3.712;2022-09-03T14:43:03;4.9;;;3;;
74457;SDS011;62896;51.032;3.712;2022-09-03T14:45:51;2.6;;;2.4;;
74457;SDS011;62896;51.032;3.712;2022-09-03T14:49:11;2.6;;;2.4;;
74457;SDS011;62896;51.032;3.712;2022-09-03T14:52:39;2.6;;;2.4;;
74457;SDS011;62896;51.032;3.712;2022-09-03T14:55:52;2.6;;;2.4;;
74457;SDS011;62896;51.032;3.712;2022-09-03T14:59:13;2.6;;;2.4;;
74457;SDS011;62896;51.032;3.712;2022-09-03T15:02:37;2.6;;;2.4;;
74457;SDS011;62896;51.032;3.712;2022-09-03T15:05:48;2.6;;;2.4;;
74457;SDS011;62896;51.032;3.712;2022-09-03T15:09:26;2.6;;;2.4;;
74457;SDS011;62896;51.032;3.712;2022-09-03T15:12:30;2.6;;;2.4;;
74457;SDS011;62896;51.032;3.712;2022-09-03T15:15:53;2.6;;;2.4;;
74457;SDS011;62896;51.032;3.712;2022-09-03T15:19:11;2.6;;;2.4;;
74457;SDS011;62896;51.032;3.712;2022-09-03T15:22:33;2.6;;;2.4;;
74457;SDS011;62896;51.032;3.712;2022-09-03T15:25:52;2.6;;;2.4;;
74457;SDS011;62896;51.032;3.712;2022-09-03T15:29:11;2.6;;;2.4;;
74457;SDS011;62896;51.032;3.712;2022-09-03T15:32:32;2.6;;;2.4;;
74457;SDS011;62896;51.032;3.712;2022-09-03T15:35:51;2.6;;;2.4;;
74457;SDS011;62896;51.032;3.712;2022-09-03T15:39:09;2.6;;;2.4;;
74457;SDS011;62896;51.032;3.712;2022-09-03T15:42:28;2.6;;;2.4;;
74457;SDS011;62896;51.032;3.712;2022-09-03T15:45:50;2.6;;;2.4;;
74457;SDS011;62896;51.032;3.712;2022-09-03T15:49:09;2.6;;;2.4;;
74457;SDS011;62896;51.032;3.712;2022-09-03T15:52:29;2.6;;;2.4;;
74457;SDS011;62896;51.032;3.712;2022-09-03T15:55:48;2.6;;;2.4;;
74457;SDS011;62896;51.032;3.712;2022-09-03T15:59:11;2.6;;;2.4;;
74457;SDS011;62896;51.032;3.712;2022-09-03T16:02:30;2.6;;;2.4;;
74457;SDS011;62896;51.032;3.712;2022-09-03T16:05:50;2.6;;;2.4;;
74457;SDS011;62896;51.032;3.712;2022-09-03T16:09:09;2.6;;;2.4;;
74457;SDS011;62896;51.032;3.712;2022-09-03T16:12:29;2.6;;;2.4;;
74457;SDS011;62896;51.032;3.712;2022-09-03T16:15:48;2.6;;;2.4;;
74457;SDS011;62896;51.032;3.712;2022-09-03T16:19:09;2.6;;;2.4;;
74457;SDS011;62896;51.032;3.712;2022-09-03T16:22:28;2.6;;;2.4;;
74457;SDS011;62896;51.032;3.712;2022-09-03T16:25:48;2.6;;;2.4;;
74457;SDS011;62896;51.032;3.712;2022-09-03T16:29:11;2.6;;;2.4;;
74457;SDS011;62896;51.032;3.712;2022-09-03T16:32:40;2.6;;;2.4;;
74457;SDS011;62896;51.032;3.712;2022-09-03T16:35:49;2.6;;;2.4;;
74457;SDS011;62896;51.032;3.712;2022-09-03T16:39:11;2.6;;;2.4;;
74457;SDS011;62896;51.032;3.712;2022-09-03T16:42:30;2.6;;;2.4;;
74457;SDS011;62896;51.032;3.712;2022-09-03T16:45:49;2.6;;;2.4;;
74457;SDS011;62896;51.032;3.712;2022-09-03T16:49:11;2.6;;;2.4;;
74457;SDS011;62896;51.032;3.712;2022-09-03T16:52:28;2.6;;;2.4;;
74457;SDS011;62896;51.032;3.712;2022-09-03T16:55:53;2.6;;;2.4;;
74457;SDS011;62896;51.032;3.712;2022-09-03T16:59:10;2.6;;;2.4;;
74457;SDS011;62896;51.032;3.712;2022-09-03T17:02:34;2.6;;;2.4;;
74457;SDS011;62896;51.032;3.712;2022-09-03T17:05:54;2.6;;;2.4;;
74457;SDS011;62896;51.032;3.712;2022-09-03T17:09:11;2.6;;;2.4;;
74457;SDS011;62896;51.032;3.712;2022-09-03T17:12:29;2.6;;;2.4;;
74457;SDS011;62896;51.032;3.712;2022-09-03T17:15:48;2.6;;;2.4;;
74457;SDS011;62896;51.032;3.712;2022-09-03T17:19:10;2.6;;;2.4;;
74457;SDS011;62896;51.032;3.712;2022-09-03T17:22:32;2.6;;;2.4;;
74457;SDS011;62896;51.032;3.712;2022-09-03T17:25:49;2.6;;;2.4;;
74457;SDS011;62896;51.032;3.712;2022-09-03T17:29:12;2.6;;;2.4;;
74457;SDS011;62896;51.032;3.712;2022-09-03T17:32:30;2.6;;;2.4;;
74457;SDS011;62896;51.032;3.712;2022-09-03T17:35:49;2.6;;;2.4;;
74457;SDS011;62896;51.032;3.712;2022-09-03T17:39:17;2.6;;;2.4;;
74457;SDS011;62896;51.032;3.712;2022-09-03T17:42:29;2.6;;;2.4;;
74457;SDS011;62896;51.032;3.712;2022-09-03T17:45:50;2.6;;;2.4;;
74457;SDS011;62896;51.032;3.712;2022-09-03T17:49:08;2.6;;;2.4;;
74457;SDS011;62896;51.032;3.712;2022-09-03T17:52:28;2.6;;;2.4;;
74457;SDS011;62896;51.032;3.712;2022-09-03T17:55:49;2.6;;;2.4;;
74457;SDS011;62896;51.032;3.712;2022-09-03T17:59:09;2.6;;;2.4;;
74457;SDS011;62896;51.032;3.712;2022-09-03T18:02:30;2.6;;;2.4;;
74457;SDS011;62896;51.032;3.712;2022-09-03T18:05:48;2.6;;;2.4;;
74457;SDS011;62896;51.032;3.712;2022-09-03T18:09:09;2.6;;;2.4;;
74457;SDS011;62896;51.032;3.712;2022-09-03T18:12:31;2.6;;;2.4;;
74457;SDS011;62896;51.032;3.712;2022-09-03T18:15:48;2.6;;;2.4;;
74457;SDS011;62896;51.032;3.712;2022-09-03T18:19:09;2.6;;;2.4;;
74457;SDS011;62896;51.032;3.712;2022-09-03T18:22:28;2.6;;;2.4;;
74457;SDS011;62896;51.032;3.712;2022-09-03T18:25:49;2.6;;;2.4;;
74457;SDS011;62896;51.032;3.712;2022-09-03T18:29:10;2.6;;;2.4;;
74457;SDS011;62896;51.032;3.712;2022-09-03T18:32:28;2.6;;;2.4;;
74457;SDS011;62896;51.032;3.712;2022-09-03T18:35:48;2.6;;;2.4;;
74457;SDS011;62896;51.032;3.712;2022-09-03T18:39:09;2.6;;;2.4;;
74457;SDS011;62896;51.032;3.712;2022-09-03T18:42:30;2.6;;;2.4;;
74457;SDS011;62896;51.032;3.712;2022-09-03T18:45:49;2.6;;;2.4;;
74457;SDS011;62896;51.032;3.712;2022-09-03T18:49:09;2.6;;;2.4;;
74457;SDS011;62896;51.032;3.712;2022-09-03T18:52:29;2.6;;;2.4;;
74457;SDS011;62896;51.032;3.712;2022-09-03T18:55:53;4.5;;;2.5;;
74457;SDS011;62896;51.032;3.712;2022-09-03T18:59:11;4.5;;;2.5;;
74457;SDS011;62896;51.032;3.712;2022-09-03T19:02:28;4.5;;;2.5;;
74457;SDS011;62896;51.032;3.712;2022-09-03T19:05:51;4.5;;;2.5;;
74457;SDS011;62896;51.032;3.712;2022-09-03T19:09:09;4.5;;;2.5;;
74457;SDS011;62896;51.032;3.712;2022-09-03T19:12:31;4.5;;;2.5;;
74457;SDS011;62896;51.032;3.712;2022-09-03T19:15:50;4.5;;;2.5;;
74457;SDS011;62896;51.032;3.712;2022-09-03T19:19:15;5.7;;;2.5;;
74457;SDS011;62896;51.032;3.712;2022-09-03T19:22:29;5.7;;;2.5;;
74457;SDS011;62896;51.032;3.712;2022-09-03T19:25:48;5.7;;;2.5;;
74457;SDS011;62896;51.032;3.712;2022-09-03T19:29:14;5.7;;;2.5;;
74457;SDS011;62896;51.032;3.712;2022-09-03T19:32:30;5.7;;;2.5;;
74457;SDS011;62896;51.032;3.712;2022-09-03T19:35:49;5.7;;;2.5;;
74457;SDS011;62896;51.032;3.712;2022-09-03T19:39:10;5.7;;;2.5;;
74457;SDS011;62896;51.032;3.712;2022-09-03T19:42:30;5.7;;;2.5;;
74457;SDS011;62896;51.032;3.712;2022-09-03T19:45:50;5.5;;;2.7;;
74457;SDS011;62896;51.032;3.712;2022-09-03T19:49:10;5.5;;;2.7;;
74457;SDS011;62896;51.032;3.712;2022-09-03T19:52:29;5.5;;;2.7;;
74457;SDS011;62896;51.032;3.712;2022-09-03T19:55:48;5.5;;;2.7;;
74457;SDS011;62896;51.032;3.712;2022-09-03T19:59:09;5.5;;;2.7;;
74457;SDS011;62896;51.032;3.712;2022-09-03T20:02:28;5.5;;;2.7;;
74457;SDS011;62896;51.032;3.712;2022-09-03T20:05:48;5.5;;;2.7;;
74457;SDS011;62896;51.032;3.712;2022-09-03T20:09:08;4.2;;;2.8;;
74457;SDS011;62896;51.032;3.712;2022-09-03T20:12:28;4.2;;;2.8;;
74457;SDS011;62896;51.032;3.712;2022-09-03T20:15:50;4.2;;;2.8;;
74457;SDS011;62896;51.032;3.712;2022-09-03T20:19:10;4.2;;;2.8;;
74457;SDS011;62896;51.032;3.712;2022-09-03T20:22:29;4.2;;;2.8;;
74457;SDS011;62896;51.032;3.712;2022-09-03T20:25:53;4.2;;;2.8;;
74457;SDS011;62896;51.032;3.712;2022-09-03T20:29:12;4.2;;;2.8;;
74457;SDS011;62896;51.032;3.712;2022-09-03T20:32:33;4.2;;;2.8;;
74457;SDS011;62896;51.032;3.712;2022-09-03T20:35:51;5;;;3;;
74457;SDS011;62896;51.032;3.712;2022-09-03T20:39:12;5;;;3;;
74457;SDS011;62896;51.032;3.712;2022-09-03T20:42:39;5;;;3;;
74457;SDS011;62896;51.032;3.712;2022-09-03T20:45:51;5;;;3;;
74457;SDS011;62896;51.032;3.712;2022-09-03T20:49:10;5;;;3;;
74457;SDS011;62896;51.032;3.712;2022-09-03T20:52:30;5;;;3;;
74457;SDS011;62896;51.032;3.712;2022-09-03T20:55:48;5;;;3;;
74457;SDS011;62896;51.032;3.712;2022-09-03T20:59:09;6.3;;;3.6;;
74457;SDS011;62896;51.032;3.712;2022-09-03T21:02:29;6.3;;;3.6;;
74457;SDS011;62896;51.032;3.712;2022-09-03T21:05:51;6.3;;;3.6;;
74457;SDS011;62896;51.032;3.712;2022-09-03T21:09:13;6.3;;;3.6;;
74457;SDS011;62896;51.032;3.712;2022-09-03T21:12:30;6.3;;;3.6;;
74457;SDS011;62896;51.032;3.712;2022-09-03T21:15:48;6.3;;;3.6;;
74457;SDS011;62896;51.032;3.712;2022-09-03T21:19:09;6.3;;;3.6;;
74457;SDS011;62896;51.032;3.712;2022-09-03T21:22:30;6.3;;;3.6;;
74457;SDS011;62896;51.032;3.712;2022-09-03T21:25:50;7.4;;;6;;
74457;SDS011;62896;51.032;3.712;2022-09-03T21:29:10;7.4;;;6;;
74457;SDS011;62896;51.032;3.712;2022-09-03T21:32:30;7.4;;;6;;
74457;SDS011;62896;51.032;3.712;2022-09-03T21:35:48;7.4;;;6;;
74457;SDS011;62896;51.032;3.712;2022-09-03T21:39:09;7.4;;;6;;
74457;SDS011;62896;51.032;3.712;2022-09-03T21:42:29;7.4;;;6;;
74457;SDS011;62896;51.032;3.712;2022-09-03T21:45:50;7.4;;;6;;
74457;SDS011;62896;51.032;3.712;2022-09-03T21:49:08;22.4;;;17;;
74457;SDS011;62896;51.032;3.712;2022-09-03T21:52:30;22.4;;;17;;
74457;SDS011;62896;51.032;3.712;2022-09-03T21:55:58;22.4;;;17;;
74457;SDS011;62896;51.032;3.712;2022-09-03T21:59:10;22.4;;;17;;
74457;SDS011;62896;51.032;3.712;2022-09-03T22:02:28;22.4;;;17;;
74457;SDS011;62896;51.032;3.712;2022-09-03T22:05:49;22.4;;;17;;
74457;SDS011;62896;51.032;3.712;2022-09-03T22:09:09;22.4;;;17;;
74457;SDS011;62896;51.032;3.712;2022-09-03T22:12:28;22.4;;;17;;
74457;SDS011;62896;51.032;3.712;2022-09-03T22:15:48;28.3;;;22.3;;
74457;SDS011;62896;51.032;3.712;2022-09-03T22:19:08;28.3;;;22.3;;
74457;SDS011;62896;51.032;3.712;2022-09-03T22:22:31;28.3;;;22.3;;
74457;SDS011;62896;51.032;3.712;2022-09-03T22:25:50;28.3;;;22.3;;
74457;SDS011;62896;51.032;3.712;2022-09-03T22:29:09;28.3;;;22.3;;
74457;SDS011;62896;51.032;3.712;2022-09-03T22:32:30;28.3;;;22.3;;
74457;SDS011;62896;51.032;3.712;2022-09-03T22:35:52;28.3;;;22.3;;
74457;SDS011;62896;51.032;3.712;2022-09-03T22:39:11;30;;;25.3;;
74457;SDS011;62896;51.032;3.712;2022-09-03T22:42:33;30;;;25.3;;
74457;SDS011;62896;51.032;3.712;2022-09-03T22:45:52;30;;;25.3;;
74457;SDS011;62896;51.032;3.712;2022-09-03T22:49:09;30;;;25.3;;
74457;SDS011;62896;51.032;3.712;2022-09-03T22:52:29;30;;;25.3;;
74457;SDS011;62896;51.032;3.712;2022-09-03T22:55:49;30;;;25.3;;
74457;SDS011;62896;51.032;3.712;2022-09-03T22:59:09;30;;;25.3;;
74457;SDS011;62896;51.032;3.712;2022-09-03T23:02:29;30;;;25.3;;
74457;SDS011;62896;51.032;3.712;2022-09-03T23:05:49;35.5;;;28.4;;
74457;SDS011;62896;51.032;3.712;2022-09-03T23:09:08;35.5;;;28.4;;
74457;SDS011;62896;51.032;3.712;2022-09-03T23:12:30;35.5;;;28.4;;
74457;SDS011;62896;51.032;3.712;2022-09-03T23:15:52;35.5;;;28.4;;
74457;SDS011;62896;51.032;3.712;2022-09-03T23:19:09;35.5;;;28.4;;
74457;SDS011;62896;51.032;3.712;2022-09-03T23:22:29;35.5;;;28.4;;
74457;SDS011;62896;51.032;3.712;2022-09-03T23:25:48;35.5;;;28.4;;
74457;SDS011;62896;51.032;3.712;2022-09-03T23:29:10;41;;;32.8;;
74457;SDS011;62896;51.032;3.712;2022-09-03T23:32:28;41;;;32.8;;
74457;SDS011;62896;51.032;3.712;2022-09-03T23:35:50;41;;;32.8;;
74457;SDS011;62896;51.032;3.712;2022-09-03T23:39:09;41;;;32.8;;
74457;SDS011;62896;51.032;3.712;2022-09-03T23:42:31;41;;;32.8;;
74457;SDS011;62896;51.032;3.712;2022-09-03T23:45:49;41;;;32.8;;
74457;SDS011;62896;51.032;3.712;2022-09-03T23:49:12;41;;;32.8;;
74457;SDS011;62896;51.032;3.712;2022-09-03T23:52:33;41;;;32.8;;
74457;SDS011;62896;51.032;3.712;2022-09-03T23:55:51;47.6;;;35;;
74457;SDS011;62896;51.032;3.712;2022-09-03T23:59:10;47.6;;;35;;
